Time;durP1;ratioP1;P1;durP2;ratioP2;P2;SDS_P1;SDS_P2;PMS_P1;PMS_P2;Temp;Humidity;BMP_temperature;BMP_pressure;BME280_temperature;BME280_humidity;BME280_pressure;Samples;Min_cycle;Max_cycle;Signal;HPM_P1;HPM_P2
2022/03/08 00:02:09;;;;;;;11.67;10.57;;;-0.30;99.90;;;;;;5114461;28;20164;-63
2022/03/08 00:04:35;;;;;;;13.33;11.50;;;-0.30;99.90;;;;;;5113831;28;20568;-61
2022/03/08 00:07:01;;;;;;;14.07;11.63;;;-0.30;99.90;;;;;;5114045;28;20602;-61
2022/03/08 00:09:28;;;;;;;13.03;11.63;;;-0.30;99.90;;;;;;5114005;28;20176;-61
2022/03/08 00:11:54;;;;;;;12.30;11.00;;;-0.30;99.90;;;;;;5114102;28;20183;-64
2022/03/08 00:14:20;;;;;;;15.67;11.93;;;-0.40;99.90;;;;;;5113650;28;20200;-61
2022/03/08 00:16:46;;;;;;;13.80;11.80;;;-0.40;99.90;;;;;;5113654;28;20652;-62
2022/03/08 00:19:12;;;;;;;13.87;10.60;;;-0.50;99.90;;;;;;5113700;28;20268;-62
2022/03/08 00:21:38;;;;;;;15.20;11.83;;;-0.60;99.90;;;;;;5113678;28;20696;-61
2022/03/08 00:24:04;;;;;;;13.07;11.70;;;-0.70;99.90;;;;;;5113596;28;20291;-61
2022/03/08 00:26:30;;;;;;;14.67;11.83;;;-0.90;99.90;;;;;;5112349;28;20204;-62
2022/03/08 00:28:56;;;;;;;13.50;11.00;;;-0.90;99.90;;;;;;5113826;28;20181;-61
2022/03/08 00:31:21;;;;;;;13.27;11.27;;;-0.90;99.90;;;;;;5113772;28;20196;-63
2022/03/08 00:33:47;;;;;;;12.97;11.57;;;-1.10;99.90;;;;;;5114053;28;20161;-62
2022/03/08 00:36:13;;;;;;;17.43;12.83;;;-1.10;99.90;;;;;;5113533;28;20257;-63
2022/03/08 00:38:39;;;;;;;14.47;11.70;;;-1.10;99.90;;;;;;5113524;28;20204;-62
2022/03/08 00:41:05;;;;;;;17.50;12.37;;;-1.00;99.90;;;;;;5113616;28;20630;-61
2022/03/08 00:43:31;;;;;;;15.27;11.73;;;-0.90;99.90;;;;;;5113704;28;20625;-62
2022/03/08 00:45:56;;;;;;;15.57;13.23;;;-0.80;99.90;;;;;;5113540;28;20197;-62
2022/03/08 00:48:22;;;;;;;17.03;12.70;;;-0.80;99.90;;;;;;5113564;28;20184;-63
2022/03/08 00:50:48;;;;;;;17.17;12.90;;;-0.80;99.90;;;;;;5112148;28;20181;-61
2022/03/08 00:53:14;;;;;;;14.90;12.40;;;-0.80;99.90;;;;;;5113593;28;20180;-61
2022/03/08 00:55:40;;;;;;;17.00;12.20;;;-0.80;99.90;;;;;;5113571;28;20272;-61
2022/03/08 00:58:07;;;;;;;13.63;11.47;;;-0.80;99.90;;;;;;5113286;28;20204;-64
2022/03/08 01:00:35;;;;;;;14.27;12.37;;;-1.00;99.90;;;;;;5117223;28;20172;-61
2022/03/08 01:03:01;;;;;;;16.20;12.03;;;-0.90;99.90;;;;;;5117008;28;20632;-62
2022/03/08 01:05:28;;;;;;;13.23;11.53;;;-0.90;99.90;;;;;;5117016;28;20203;-61
2022/03/08 01:07:55;;;;;;;14.17;11.80;;;-0.90;99.90;;;;;;5117258;28;20164;-64
2022/03/08 01:10:22;;;;;;;14.00;11.63;;;-0.90;99.90;;;;;;5117039;27;20264;-61
2022/03/08 01:12:50;;;;;;;14.20;11.97;;;-0.80;99.90;;;;;;5116977;28;20196;-61
2022/03/08 01:15:17;;;;;;;14.10;11.90;;;-0.80;99.90;;;;;;5116831;28;20200;-61
2022/03/08 01:17:44;;;;;;;12.43;11.13;;;-0.80;99.90;;;;;;5117094;28;20233;-62
2022/03/08 01:20:12;;;;;;;13.60;11.20;;;-0.80;99.90;;;;;;5116945;28;20246;-61
2022/03/08 01:22:38;;;;;;;15.90;11.93;;;-0.80;99.90;;;;;;5117431;28;20229;-62
2022/03/08 01:25:06;;;;;;;14.13;12.67;;;-0.90;99.90;;;;;;5116598;27;20192;-63
2022/03/08 01:27:32;;;;;;;13.17;11.67;;;-0.80;99.90;;;;;;5116653;28;20177;-61
2022/03/08 01:29:58;;;;;;;16.03;12.23;;;-0.80;99.90;;;;;;5116568;28;20225;-64
2022/03/08 01:32:24;;;;;;;14.37;12.23;;;-0.80;99.90;;;;;;5116449;28;20192;-62
2022/03/08 01:34:49;;;;;;;13.00;11.10;;;-0.80;99.90;;;;;;5116416;28;20242;-62
2022/03/08 01:37:15;;;;;;;14.33;11.33;;;-0.90;99.90;;;;;;5116956;28;20263;-63
2022/03/08 01:39:41;;;;;;;15.50;12.10;;;-1.00;99.90;;;;;;5116628;28;20277;-61
2022/03/08 01:42:13;;;;;;;16.17;11.97;;;-0.90;99.90;;;;;;5116227;28;20215;-62
2022/03/08 01:44:41;;;;;;;12.83;11.40;;;-1.10;99.90;;;;;;5116480;28;20233;-61
2022/03/08 01:47:07;;;;;;;17.07;13.60;;;-1.00;99.90;;;;;;5116515;28;20169;-62
2022/03/08 01:49:33;;;;;;;14.17;12.03;;;-1.10;99.90;;;;;;5116359;28;20263;-61
2022/03/08 01:52:00;;;;;;;16.23;12.23;;;-1.00;99.90;;;;;;5116671;28;20256;-62
2022/03/08 01:54:25;;;;;;;16.03;12.27;;;-1.10;99.90;;;;;;5116523;28;20189;-61
2022/03/08 01:56:51;;;;;;;15.43;11.57;;;-1.00;99.90;;;;;;5115954;28;20172;-63
2022/03/08 01:59:17;;;;;;;16.17;12.50;;;-1.10;99.90;;;;;;5115896;28;20192;-62
2022/03/08 02:01:42;;;;;;;14.83;13.27;;;-1.10;99.90;;;;;;5115844;28;20515;-62
2022/03/08 02:04:08;;;;;;;16.63;12.50;;;-1.20;99.90;;;;;;5114479;28;20184;-63
2022/03/08 02:06:34;;;;;;;13.77;11.30;;;-1.20;99.90;;;;;;5115801;28;20187;-64
2022/03/08 02:09:00;;;;;;;15.47;12.00;;;-1.30;99.90;;;;;;5115672;28;20225;-64
2022/03/08 02:11:26;;;;;;;15.83;13.13;;;-1.30;99.90;;;;;;5113844;28;20180;-64
2022/03/08 02:13:52;;;;;;;14.57;12.43;;;-1.50;99.90;;;;;;5115567;28;20175;-61
2022/03/08 02:16:18;;;;;;;16.03;11.80;;;-1.50;99.90;;;;;;5115697;28;20176;-62
2022/03/08 02:18:43;;;;;;;15.40;12.27;;;-1.60;99.90;;;;;;5115776;28;20714;-61
2022/03/08 02:21:09;;;;;;;13.33;11.50;;;-1.60;99.90;;;;;;5115607;28;20187;-61
2022/03/08 02:23:35;;;;;;;13.43;11.57;;;-1.60;99.90;;;;;;5115496;28;20194;-61
2022/03/08 02:26:01;;;;;;;13.53;11.37;;;-1.70;99.90;;;;;;5115476;28;20251;-62
2022/03/08 02:28:29;;;;;;;14.43;12.27;;;-1.60;99.90;;;;;;5115446;28;20172;-63
2022/03/08 02:30:54;;;;;;;16.03;11.87;;;-1.60;99.90;;;;;;5115345;28;20266;-64
2022/03/08 02:33:20;;;;;;;15.33;11.60;;;-1.60;99.90;;;;;;5115255;28;20192;-63
2022/03/08 02:35:46;;;;;;;16.83;13.17;;;-1.60;99.90;;;;;;5113968;28;20652;-61
2022/03/08 02:38:12;;;;;;;13.37;11.77;;;-1.60;99.90;;;;;;5115176;28;20173;-61
2022/03/08 02:40:39;;;;;;;13.93;12.43;;;-1.60;99.90;;;;;;5115154;28;20590;-62
2022/03/08 02:43:07;;;;;;;13.17;11.67;;;-1.70;99.90;;;;;;5115156;28;20192;-61
2022/03/08 02:45:33;;;;;;;13.73;12.30;;;-1.60;99.90;;;;;;5114952;28;20189;-61
2022/03/08 02:48:00;;;;;;;13.63;11.33;;;-1.70;99.90;;;;;;5115178;28;20168;-63
2022/03/08 02:50:26;;;;;;;14.40;12.77;;;-1.70;99.90;;;;;;5115333;28;20514;-61
2022/03/08 02:52:53;;;;;;;17.23;13.03;;;-1.90;99.90;;;;;;5115103;28;20184;-61
2022/03/08 02:55:22;;;;;;;17.47;12.33;;;-1.90;99.90;;;;;;5115179;28;20576;-61
2022/03/08 02:57:48;;;;;;;14.13;12.57;;;-1.90;99.90;;;;;;5115097;28;20259;-61
2022/03/08 03:00:16;;;;;;;18.23;12.47;;;-1.90;99.90;;;;;;5113542;28;20664;-61
2022/03/08 03:02:42;;;;;;;14.00;12.37;;;-2.00;99.90;;;;;;5114893;28;20703;-63
2022/03/08 03:05:09;;;;;;;17.70;13.23;;;-1.90;99.90;;;;;;5114653;28;20209;-62
2022/03/08 03:07:35;;;;;;;19.83;13.00;;;-1.90;99.90;;;;;;5114833;28;20168;-62
2022/03/08 03:10:03;;;;;;;15.37;13.00;;;-2.00;99.90;;;;;;5115230;28;20739;-62
2022/03/08 03:12:29;;;;;;;15.10;12.23;;;-2.00;99.90;;;;;;5115019;28;20165;-63
2022/03/08 03:14:54;;;;;;;14.67;12.13;;;-2.00;99.90;;;;;;5114701;28;20688;-61
2022/03/08 03:17:20;;;;;;;16.83;12.47;;;-1.90;99.90;;;;;;5114939;28;20656;-61
2022/03/08 03:19:46;;;;;;;17.80;12.70;;;-2.00;99.90;;;;;;5113187;28;20249;-61
2022/03/08 03:22:12;;;;;;;15.27;11.73;;;-2.00;99.90;;;;;;5114072;28;20180;-61
2022/03/08 03:24:38;;;;;;;13.97;12.57;;;-2.00;99.90;;;;;;5114322;28;20191;-61
2022/03/08 03:27:03;;;;;;;14.90;12.17;;;-2.00;99.90;;;;;;5114799;28;20525;-61
2022/03/08 03:29:29;;;;;;;15.07;12.43;;;-2.00;99.90;;;;;;5114072;28;20188;-61
2022/03/08 03:31:55;;;;;;;15.13;12.53;;;-2.00;99.90;;;;;;5114724;28;20188;-62
2022/03/08 03:34:21;;;;;;;14.47;12.93;;;-1.90;99.90;;;;;;5114158;28;20202;-61
2022/03/08 03:36:46;;;;;;;16.03;12.80;;;-1.90;99.90;;;;;;5114779;28;20617;-61
2022/03/08 03:39:12;;;;;;;14.57;12.67;;;-1.90;99.90;;;;;;5114488;28;20541;-62
2022/03/08 03:41:38;;;;;;;18.50;13.57;;;-1.90;99.90;;;;;;5114114;28;20268;-61
2022/03/08 03:44:04;;;;;;;17.73;13.23;;;-2.00;99.90;;;;;;5113990;28;20716;-61
2022/03/08 03:46:29;;;;;;;16.17;13.10;;;-2.00;99.90;;;;;;5114095;28;20637;-61
2022/03/08 03:48:55;;;;;;;14.33;12.93;;;-1.90;99.90;;;;;;5114177;28;20176;-62
2022/03/08 03:51:21;;;;;;;16.10;13.10;;;-2.00;99.90;;;;;;5114154;28;20175;-63
2022/03/08 03:53:46;;;;;;;14.83;12.40;;;-2.00;99.90;;;;;;5114147;28;20171;-62
2022/03/08 03:56:12;;;;;;;14.57;12.97;;;-2.00;99.90;;;;;;5113866;28;20188;-61
2022/03/08 03:58:38;;;;;;;14.93;13.33;;;-2.10;99.90;;;;;;5113816;28;20222;-61
2022/03/08 04:01:04;;;;;;;16.30;13.23;;;-2.10;99.90;;;;;;5112573;28;20207;-61
2022/03/08 04:03:30;;;;;;;15.63;13.03;;;-2.10;99.90;;;;;;5114010;28;20562;-62
2022/03/08 04:05:56;;;;;;;14.53;12.60;;;-2.20;99.90;;;;;;5113702;28;20205;-63
2022/03/08 04:08:22;;;;;;;15.60;13.07;;;-2.20;99.90;;;;;;5112737;28;20172;-62
2022/03/08 04:10:49;;;;;;;14.57;13.00;;;-2.20;99.90;;;;;;5113682;28;20165;-63
2022/03/08 04:13:15;;;;;;;14.30;12.80;;;-2.30;99.90;;;;;;5113883;28;20164;-63
2022/03/08 04:15:41;;;;;;;17.17;12.53;;;-2.30;99.90;;;;;;5113818;28;20602;-63
2022/03/08 04:18:07;;;;;;;18.43;12.67;;;-2.40;99.90;;;;;;5113789;28;20169;-62
2022/03/08 04:20:34;;;;;;;18.63;13.47;;;-2.40;99.90;;;;;;5113818;28;20171;-61
2022/03/08 04:22:59;;;;;;;19.53;13.63;;;-2.50;99.90;;;;;;5113876;28;20318;-61
2022/03/08 04:25:26;;;;;;;14.70;12.80;;;-2.40;99.90;;;;;;5113835;28;20228;-62
2022/03/08 04:27:52;;;;;;;15.83;12.97;;;-2.30;99.90;;;;;;5114022;28;20169;-64
2022/03/08 04:30:17;;;;;;;15.67;12.50;;;-2.30;99.90;;;;;;5112586;28;20183;-64
2022/03/08 04:32:43;;;;;;;17.97;13.80;;;-2.40;99.90;;;;;;5113830;28;20203;-64
2022/03/08 04:35:09;;;;;;;15.00;12.23;;;-2.50;99.90;;;;;;5116534;28;20214;-62
2022/03/08 04:37:35;;;;;;;16.13;12.43;;;-2.40;99.90;;;;;;5117875;28;20203;-62
2022/03/08 04:40:01;;;;;;;16.47;12.53;;;-2.30;99.90;;;;;;5117524;28;20228;-62
2022/03/08 04:42:27;;;;;;;16.50;12.27;;;-2.30;99.90;;;;;;5118191;28;20724;-63
2022/03/08 04:44:53;;;;;;;15.90;13.70;;;-2.20;99.90;;;;;;5117415;28;20223;-63
2022/03/08 04:47:18;;;;;;;15.37;13.27;;;-2.20;99.90;;;;;;5118010;28;20168;-62
2022/03/08 04:49:44;;;;;;;16.90;12.57;;;-2.40;99.90;;;;;;5117284;28;20173;-63
2022/03/08 04:52:10;;;;;;;18.83;13.10;;;-2.40;99.90;;;;;;5117814;28;20269;-61
2022/03/08 04:54:35;;;;;;;15.70;12.40;;;-2.40;99.90;;;;;;5117253;28;20193;-61
2022/03/08 04:57:02;;;;;;;16.97;13.37;;;-2.50;99.90;;;;;;5117208;28;20233;-61
2022/03/08 04:59:28;;;;;;;16.53;13.80;;;-2.50;99.90;;;;;;5117127;28;20192;-62
2022/03/08 05:01:53;;;;;;;15.93;12.77;;;-2.50;99.90;;;;;;5115922;28;20175;-61
2022/03/08 05:04:21;;;;;;;15.43;12.63;;;-2.60;99.90;;;;;;5117352;28;20702;-63
2022/03/08 05:06:47;;;;;;;18.13;14.00;;;-2.60;99.90;;;;;;5117100;28;20540;-61
2022/03/08 05:09:13;;;;;;;19.77;14.00;;;-2.60;99.90;;;;;;5116196;28;20578;-61
2022/03/08 05:11:39;;;;;;;16.50;13.37;;;-2.60;99.90;;;;;;5117164;28;20173;-61
2022/03/08 05:14:05;;;;;;;14.60;12.90;;;-2.60;99.90;;;;;;5117280;28;20221;-60
2022/03/08 05:16:31;;;;;;;19.37;13.60;;;-2.60;99.90;;;;;;5116954;28;20176;-62
2022/03/08 05:18:57;;;;;;;15.87;13.30;;;-2.60;99.90;;;;;;5116937;28;20218;-61
2022/03/08 05:21:23;;;;;;;15.83;13.07;;;-2.60;99.90;;;;;;5116946;28;20172;-63
2022/03/08 05:23:48;;;;;;;18.17;13.93;;;-2.50;99.90;;;;;;5116637;28;20173;-61
2022/03/08 05:26:15;;;;;;;17.60;15.23;;;-2.50;99.90;;;;;;5115391;28;20201;-62
2022/03/08 05:28:42;;;;;;;19.40;15.53;;;-2.40;99.90;;;;;;5116822;28;20183;-61
2022/03/08 05:31:09;;;;;;;17.17;15.03;;;-2.40;99.90;;;;;;5119232;28;20259;-62
2022/03/08 05:33:35;;;;;;;17.87;14.57;;;-2.50;99.90;;;;;;5117783;28;20294;-62
2022/03/08 05:36:00;;;;;;;22.30;15.93;;;-2.50;99.90;;;;;;5116801;28;20662;-61
2022/03/08 05:38:26;;;;;;;17.90;15.60;;;-2.50;99.90;;;;;;5116767;28;20168;-61
2022/03/08 05:40:52;;;;;;;20.20;14.37;;;-2.50;99.90;;;;;;5116663;27;20176;-62
2022/03/08 05:43:18;;;;;;;19.27;14.20;;;-2.50;99.90;;;;;;5116487;28;20664;-61
2022/03/08 05:45:43;;;;;;;17.00;13.93;;;-2.50;99.90;;;;;;5115576;28;20197;-62
2022/03/08 05:48:10;;;;;;;17.87;15.23;;;-2.50;99.90;;;;;;5116247;28;20657;-62
2022/03/08 05:50:36;;;;;;;18.57;15.20;;;-2.50;99.90;;;;;;5116216;28;20184;-62
2022/03/08 05:53:02;;;;;;;18.80;14.17;;;-2.50;99.90;;;;;;5116183;28;20173;-61
2022/03/08 05:55:27;;;;;;;19.40;15.43;;;-2.50;99.90;;;;;;5115957;28;20690;-62
2022/03/08 05:57:53;;;;;;;17.93;14.47;;;-2.50;99.90;;;;;;5116384;28;20177;-61
2022/03/08 06:00:19;;;;;;;17.90;14.10;;;-2.50;99.90;;;;;;5116044;27;20564;-62
2022/03/08 06:02:45;;;;;;;18.87;14.47;;;-2.60;99.90;;;;;;5115945;28;20172;-62
2022/03/08 06:05:10;;;;;;;17.77;15.07;;;-2.60;99.90;;;;;;5116410;28;20188;-61
2022/03/08 06:07:36;;;;;;;16.57;14.43;;;-2.60;99.90;;;;;;5116080;28;20584;-61
2022/03/08 06:10:04;;;;;;;18.07;15.50;;;-2.60;99.90;;;;;;5115998;28;20189;-61
2022/03/08 06:12:29;;;;;;;19.70;14.93;;;-2.60;99.90;;;;;;5116082;28;20168;-61
2022/03/08 06:14:55;;;;;;;15.20;13.70;;;-2.50;99.90;;;;;;5115828;28;20196;-62
2022/03/08 06:17:21;;;;;;;16.77;14.40;;;-2.60;99.90;;;;;;5116285;28;20649;-61
2022/03/08 06:19:46;;;;;;;20.50;15.63;;;-2.50;99.90;;;;;;5115746;28;20203;-61
2022/03/08 06:22:12;;;;;;;18.30;14.93;;;-2.50;99.90;;;;;;5115387;28;20660;-61
2022/03/08 06:24:38;;;;;;;18.90;14.90;;;-2.60;99.90;;;;;;5115318;28;20192;-61
2022/03/08 06:27:04;;;;;;;23.80;16.97;;;-2.50;99.90;;;;;;5115362;28;20169;-61
2022/03/08 06:29:29;;;;;;;20.47;16.60;;;-2.50;99.90;;;;;;5115226;28;20203;-62
2022/03/08 06:31:55;;;;;;;18.10;16.23;;;-2.50;99.90;;;;;;5113827;28;20191;-61
2022/03/08 06:34:21;;;;;;;17.67;14.60;;;-2.50;99.90;;;;;;5115178;28;20188;-61
2022/03/08 06:36:46;;;;;;;18.67;15.27;;;-2.40;99.90;;;;;;5115122;28;20637;-61
2022/03/08 06:39:13;;;;;;;21.30;16.30;;;-2.30;99.90;;;;;;5115074;28;20561;-61
2022/03/08 06:41:39;;;;;;;19.90;16.30;;;-2.20;99.90;;;;;;5115047;28;20164;-61
2022/03/08 06:44:05;;;;;;;21.07;16.40;;;-2.20;99.90;;;;;;5113654;28;20180;-61
2022/03/08 06:46:31;;;;;;;17.93;14.87;;;-2.10;99.90;;;;;;5115078;28;20225;-61
2022/03/08 06:48:57;;;;;;;18.07;15.73;;;-2.10;99.90;;;;;;5113665;28;20644;-62
2022/03/08 06:51:22;;;;;;;23.43;16.53;;;-2.00;99.90;;;;;;5114931;28;20168;-62
2022/03/08 06:53:48;;;;;;;19.97;16.03;;;-2.00;99.90;;;;;;5114802;28;20533;-61
2022/03/08 06:56:14;;;;;;;20.63;16.20;;;-1.90;99.90;;;;;;5114767;28;20192;-61
2022/03/08 06:58:40;;;;;;;21.47;16.43;;;-1.80;99.90;;;;;;5114572;28;20192;-62
2022/03/08 07:01:05;;;;;;;19.07;15.60;;;-1.70;99.90;;;;;;5114653;28;20217;-61
2022/03/08 07:03:31;;;;;;;18.60;15.77;;;-1.60;99.90;;;;;;5114647;28;20252;-62
2022/03/08 07:05:57;;;;;;;22.23;15.80;;;-1.50;99.90;;;;;;5114518;27;20672;-61
2022/03/08 07:08:23;;;;;;;19.07;15.57;;;-1.40;99.90;;;;;;5115095;28;20176;-62
2022/03/08 07:10:50;;;;;;;19.37;14.40;;;-1.30;99.90;;;;;;5114502;28;20204;-62
2022/03/08 07:13:16;;;;;;;16.97;15.07;;;-1.10;99.90;;;;;;5114738;28;20172;-62
2022/03/08 07:15:41;;;;;;;17.67;14.70;;;-1.00;99.90;;;;;;5114408;28;20216;-61
2022/03/08 07:18:08;;;;;;;19.57;15.33;;;-0.90;99.90;;;;;;5114951;28;20172;-62
2022/03/08 07:20:34;;;;;;;17.63;14.30;;;-0.70;99.90;;;;;;5112948;28;20204;-61
2022/03/08 07:23:00;;;;;;;19.80;15.60;;;-0.60;99.90;;;;;;5114331;28;20273;-61
2022/03/08 07:25:25;;;;;;;18.37;15.40;;;-0.40;99.90;;;;;;5112937;28;20566;-62
2022/03/08 07:27:51;;;;;;;19.57;15.00;;;-0.30;99.90;;;;;;5115345;28;20181;-62
2022/03/08 07:30:17;;;;;;;20.60;15.33;;;-0.10;99.90;;;;;;5114246;28;20204;-62
2022/03/08 07:32:43;;;;;;;18.73;15.33;;;0.10;99.90;;;;;;5114187;28;20184;-62
2022/03/08 07:35:09;;;;;;;18.73;14.87;;;0.20;99.90;;;;;;5114248;28;20539;-62
2022/03/08 07:37:36;;;;;;;17.57;14.67;;;0.40;99.90;;;;;;5113998;28;20173;-61
2022/03/08 07:40:05;;;;;;;17.23;15.03;;;0.60;99.90;;;;;;5114260;28;20276;-62
2022/03/08 07:42:31;;;;;;;15.80;14.20;;;0.80;99.90;;;;;;5113942;28;20259;-62
2022/03/08 07:44:56;;;;;;;16.63;14.00;;;1.10;99.90;;;;;;5113927;28;20263;-61
2022/03/08 07:47:22;;;;;;;17.10;13.97;;;1.30;99.90;;;;;;5114518;28;20175;-61
2022/03/08 07:49:48;;;;;;;17.63;13.77;;;1.60;99.90;;;;;;5113912;28;20195;-61
2022/03/08 07:52:13;;;;;;;18.03;14.27;;;2.00;99.90;;;;;;5113856;28;20176;-62
2022/03/08 07:54:39;;;;;;;15.97;14.00;;;2.40;99.90;;;;;;5113872;28;20196;-61
2022/03/08 07:57:05;;;;;;;16.90;13.93;;;2.80;99.90;;;;;;5114443;28;20680;-62
2022/03/08 07:59:31;;;;;;;15.57;13.10;;;3.10;99.90;;;;;;5114024;28;20196;-62
2022/03/08 08:01:58;;;;;;;14.20;12.70;;;3.40;99.90;;;;;;5113807;28;20168;-62
2022/03/08 08:04:24;;;;;;;14.83;13.43;;;3.60;99.90;;;;;;5113955;28;20192;-62
2022/03/08 08:06:50;;;;;;;18.00;12.80;;;3.70;99.90;;;;;;5114383;28;20182;-62
2022/03/08 08:09:16;;;;;;;15.83;12.43;;;3.80;99.90;;;;;;5115308;28;20189;-62
2022/03/08 08:11:42;;;;;;;13.83;12.33;;;4.00;99.90;;;;;;5117921;28;20172;-61
2022/03/08 08:14:08;;;;;;;18.50;12.90;;;4.00;99.90;;;;;;5117875;28;20190;-62
2022/03/08 08:16:33;;;;;;;13.20;11.80;;;4.10;99.90;;;;;;5118171;28;20577;-61
2022/03/08 08:18:59;;;;;;;14.17;12.67;;;4.20;99.90;;;;;;5117784;28;20286;-62
2022/03/08 08:21:25;;;;;;;15.73;12.70;;;4.40;99.90;;;;;;5117844;28;20202;-62
2022/03/08 08:23:51;;;;;;;14.30;12.00;;;4.60;99.90;;;;;;5118079;28;20802;-62
2022/03/08 08:26:17;;;;;;;13.33;11.70;;;5.00;99.90;;;;;;5117795;28;20254;-65
2022/03/08 08:28:42;;;;;;;13.93;10.53;;;6.40;99.90;;;;;;5117814;28;20178;-64
2022/03/08 08:31:08;;;;;;;13.07;10.87;;;8.20;99.90;;;;;;5117558;27;20251;-63
2022/03/08 08:33:34;;;;;;;13.27;10.13;;;10.10;99.90;;;;;;5117703;28;20190;-63
2022/03/08 08:36:00;;;;;;;13.43;10.30;;;11.90;95.00;;;;;;5117521;28;20211;-65
2022/03/08 08:38:26;;;;;;;12.15;9.10;;;12.90;85.30;;;;;;5117991;28;20225;-61
2022/03/08 08:40:51;;;;;;;10.93;9.05;;;13.90;88.20;;;;;;5117327;28;20169;-61
2022/03/08 08:43:17;;;;;;;14.73;9.32;;;14.60;72.00;;;;;;5117887;28;20176;-62
2022/03/08 08:45:43;;;;;;;9.73;8.65;;;15.10;69.00;;;;;;5117247;28;20204;-62
2022/03/08 08:48:09;;;;;;;11.52;8.05;;;15.10;68.10;;;;;;5115994;28;20178;-61
2022/03/08 08:50:36;;;;;;;14.02;8.48;;;15.70;67.70;;;;;;5117296;28;20177;-61
2022/03/08 08:53:02;;;;;;;11.40;8.45;;;16.20;64.80;;;;;;5117460;28;20173;-61
2022/03/08 08:55:28;;;;;;;10.73;8.25;;;16.10;65.30;;;;;;5116165;28;20579;-61
2022/03/08 08:57:54;;;;;;;11.65;8.82;;;16.20;65.60;;;;;;5117290;28;20172;-61
2022/03/08 09:00:20;;;;;;;9.75;8.35;;;16.10;58.80;;;;;;5117315;28;20196;-60
2022/03/08 09:02:46;;;;;;;8.90;7.97;;;15.90;59.30;;;;;;5117328;28;20230;-60
2022/03/08 09:05:13;;;;;;;13.18;8.23;;;16.00;60.60;;;;;;5117109;28;20185;-61
2022/03/08 09:07:39;;;;;;;10.70;8.45;;;15.80;59.60;;;;;;5116927;28;20172;-60
2022/03/08 09:10:06;;;;;;;9.65;8.43;;;16.00;61.10;;;;;;5115598;28;20177;-61
2022/03/08 09:12:33;;;;;;;9.93;8.38;;;15.80;64.10;;;;;;5115623;28;20180;-60
2022/03/08 09:14:59;;;;;;;11.05;8.98;;;15.00;60.70;;;;;;5116716;27;20196;-61
2022/03/08 09:17:25;;;;;;;11.68;9.32;;;14.60;62.00;;;;;;5116832;28;20187;-60
2022/03/08 09:19:51;;;;;;;10.75;7.93;;;14.00;63.30;;;;;;5116069;28;20196;-60
2022/03/08 09:22:17;;;;;;;9.85;7.53;;;13.50;59.50;;;;;;5115825;28;20535;-61
2022/03/08 09:24:42;;;;;;;9.90;8.20;;;12.50;56.20;;;;;;5116808;28;20271;-62
2022/03/08 09:27:09;;;;;;;9.07;8.18;;;11.80;59.10;;;;;;5116816;28;20165;-62
2022/03/08 09:29:35;;;;;;;9.45;8.35;;;11.00;63.30;;;;;;5116494;28;20589;-62
2022/03/08 09:32:00;;;;;;;9.02;8.13;;;10.40;62.60;;;;;;5116353;28;20188;-63
2022/03/08 09:34:26;;;;;;;11.02;8.18;;;9.90;65.10;;;;;;5116351;28;20192;-63
2022/03/08 09:36:52;;;;;;;9.75;8.52;;;9.40;69.00;;;;;;5116324;28;20632;-62
2022/03/08 09:39:18;;;;;;;11.83;8.60;;;9.20;71.40;;;;;;5116151;28;20200;-62
2022/03/08 09:41:44;;;;;;;10.97;8.63;;;8.90;70.50;;;;;;5114906;28;20183;-62
2022/03/08 09:44:14;;;;;;;9.93;8.87;;;8.60;72.20;;;;;;5116119;28;20637;-62
2022/03/08 09:46:41;;;;;;;9.13;8.23;;;8.40;70.50;;;;;;5114872;28;20176;-62
2022/03/08 09:49:06;;;;;;;11.93;8.47;;;8.30;78.00;;;;;;5116561;28;20228;-62
2022/03/08 09:51:35;;;;;;;9.27;8.17;;;8.30;74.90;;;;;;5116767;28;20268;-62
2022/03/08 09:54:02;;;;;;;11.40;8.13;;;8.30;76.00;;;;;;5115974;28;20695;-64
2022/03/08 09:56:27;;;;;;;10.70;8.57;;;8.30;75.30;;;;;;5115941;28;20644;-62
2022/03/08 09:58:53;;;;;;;11.07;8.30;;;8.30;74.60;;;;;;5116063;28;20279;-64
2022/03/08 10:01:19;;;;;;;10.23;8.30;;;8.30;74.20;;;;;;5116426;28;20173;-64
2022/03/08 10:03:46;;;;;;;9.67;8.37;;;8.30;73.20;;;;;;5116334;28;20612;-62
2022/03/08 10:06:12;;;;;;;9.87;8.43;;;8.20;75.60;;;;;;5115603;28;20275;-62
2022/03/08 10:08:38;;;;;;;9.87;7.43;;;8.40;74.40;;;;;;5115644;27;20302;-62
2022/03/08 10:11:11;;;;;;;9.30;8.10;;;8.40;75.40;;;;;;5115643;28;20205;-62
2022/03/08 10:13:42;;;;;;;10.97;8.00;;;8.60;75.80;;;;;;5115945;28;20155;-62
2022/03/08 10:16:09;;;;;;;9.03;8.07;;;8.60;74.70;;;;;;5115825;27;20263;-62
2022/03/08 10:18:37;;;;;;;9.20;8.17;;;8.70;70.60;;;;;;5115714;28;20172;-63
2022/03/08 10:21:04;;;;;;;10.03;8.30;;;8.70;75.20;;;;;;5115462;28;20716;-62
2022/03/08 10:23:40;;;;;;;8.27;7.40;;;8.80;74.80;;;;;;5114146;28;20702;-64
2022/03/08 10:26:06;;;;;;;9.20;8.20;;;8.90;74.70;;;;;;5115460;28;20196;-63
2022/03/08 10:28:42;;;;;;;8.23;7.17;;;8.90;73.40;;;;;;5114184;28;20545;-62
2022/03/08 10:31:14;;;;;;;8.13;7.23;;;9.00;72.10;;;;;;5115299;28;20539;-62
2022/03/08 10:33:40;;;;;;;7.70;6.90;;;9.00;71.10;;;;;;5115323;28;20161;-62
2022/03/08 10:36:16;;;;;;;9.27;7.13;;;9.00;72.70;;;;;;5113950;28;20271;-62
2022/03/08 10:39:01;;;;;;;7.77;7.07;;;9.00;70.40;;;;;;5115177;28;20287;-62
2022/03/08 10:41:27;;;;;;;8.93;7.23;;;9.20;71.30;;;;;;5114086;28;20198;-62
2022/03/08 10:43:55;;;;;;;8.33;7.53;;;9.20;69.40;;;;;;5115293;28;20260;-62
2022/03/08 10:46:21;;;;;;;9.43;7.47;;;9.30;68.80;;;;;;5113768;28;20181;-63
2022/03/08 10:48:48;;;;;;;10.10;7.50;;;9.40;72.50;;;;;;5113688;28;20317;-62
2022/03/08 10:51:14;;;;;;;8.80;7.60;;;9.50;69.80;;;;;;5114988;28;20218;-62
2022/03/08 10:53:44;;;;;;;8.60;7.17;;;9.60;68.10;;;;;;5115111;28;20617;-62
2022/03/08 10:56:10;;;;;;;8.60;7.43;;;9.80;68.70;;;;;;5114899;28;20248;-65
2022/03/08 10:58:50;;;;;;;8.60;7.10;;;10.00;67.50;;;;;;5114895;28;20188;-66
2022/03/08 11:01:16;;;;;;;8.87;6.97;;;10.10;66.70;;;;;;5115128;28;20199;-65
2022/03/08 11:03:56;;;;;;;7.93;7.03;;;10.20;63.70;;;;;;5115257;27;20641;-63
2022/03/08 11:06:23;;;;;;;7.47;6.50;;;10.30;62.30;;;;;;5114972;28;20156;-62
2022/03/08 11:08:50;;;;;;;8.87;6.80;;;10.40;63.80;;;;;;5114589;28;20176;-62
2022/03/08 11:11:18;;;;;;;7.73;6.80;;;10.50;62.20;;;;;;5114620;28;20173;-62
2022/03/08 11:13:52;;;;;;;8.43;7.10;;;10.50;62.90;;;;;;5114805;28;20277;-61
2022/03/08 11:16:18;;;;;;;8.43;6.80;;;10.60;60.80;;;;;;5114392;28;20199;-62
2022/03/08 11:18:49;;;;;;;9.60;7.40;;;10.90;61.40;;;;;;5114283;28;20209;-60
2022/03/08 11:21:17;;;;;;;7.72;6.80;;;10.90;59.90;;;;;;5114438;28;20195;-60
2022/03/08 11:23:44;;;;;;;7.17;6.23;;;11.20;65.20;;;;;;5114323;28;20173;-60
2022/03/08 11:26:13;;;;;;;10.83;6.77;;;11.30;60.00;;;;;;5114201;28;20188;-59
2022/03/08 11:28:40;;;;;;;7.13;6.43;;;11.40;59.60;;;;;;5114673;28;20275;-60
2022/03/08 11:31:06;;;;;;;8.77;6.45;;;11.60;61.40;;;;;;5114150;27;20589;-60
2022/03/08 11:33:58;;;;;;;8.63;6.32;;;11.70;59.60;;;;;;5114174;28;20164;-61
2022/03/08 11:36:38;;;;;;;7.80;6.43;;;11.90;58.20;;;;;;5114666;28;20172;-60
2022/03/08 11:39:31;;;;;;;8.20;6.78;;;11.90;59.80;;;;;;5114728;28;20581;-60
2022/03/08 11:42:20;;;;;;;7.97;6.43;;;12.10;58.30;;;;;;5112586;27;20249;-60
2022/03/08 11:44:58;;;;;;;8.27;6.40;;;12.20;57.00;;;;;;5113117;28;20192;-60
2022/03/08 11:47:34;;;;;;;8.05;6.20;;;12.30;58.80;;;;;;5112683;28;20648;-62
2022/03/08 11:50:00;;;;;;;6.70;6.00;;;12.50;55.40;;;;;;5112666;28;20187;-63
2022/03/08 11:52:36;;;;;;;9.20;6.30;;;12.60;57.00;;;;;;5114185;28;20176;-62
2022/03/08 11:55:09;;;;;;;7.43;6.63;;;12.70;55.50;;;;;;5114017;28;20187;-62
2022/03/08 11:57:54;;;;;;;7.53;6.22;;;12.80;55.30;;;;;;5114169;28;20161;-60
2022/03/08 12:00:31;;;;;;;9.40;6.32;;;13.00;51.30;;;;;;5114023;28;20200;-60
2022/03/08 12:03:02;;;;;;;6.43;5.78;;;13.10;55.00;;;;;;5114189;28;20555;-61
2022/03/08 12:05:43;;;;;;;6.90;5.97;;;13.50;52.50;;;;;;5113850;28;20218;-60
2022/03/08 12:08:27;;;;;;;7.10;5.90;;;13.70;53.20;;;;;;5113756;28;20576;-61
2022/03/08 12:10:57;;;;;;;7.38;6.20;;;14.00;51.70;;;;;;5113692;28;20173;-61
2022/03/08 12:13:26;;;;;;;7.07;6.05;;;14.10;52.40;;;;;;5114074;28;20157;-60
2022/03/08 12:16:10;;;;;;;7.22;5.75;;;14.00;49.80;;;;;;5112320;28;20691;-60
2022/03/08 12:18:47;;;;;;;9.52;5.70;;;14.10;48.70;;;;;;5114178;28;20640;-61
2022/03/08 12:21:16;;;;;;;7.28;6.03;;;14.20;46.50;;;;;;5113610;28;20248;-61
2022/03/08 12:23:55;;;;;;;8.13;5.85;;;14.40;49.40;;;;;;5114685;28;20298;-60
2022/03/08 12:26:29;;;;;;;6.32;5.47;;;14.80;47.50;;;;;;5113614;28;20682;-61
2022/03/08 12:29:17;;;;;;;11.02;5.47;;;14.90;44.70;;;;;;5114384;28;20168;-61
2022/03/08 12:31:57;;;;;;;5.78;5.13;;;14.70;48.00;;;;;;5115085;28;20270;-62
2022/03/08 12:34:43;;;;;;;6.50;5.70;;;14.90;48.70;;;;;;5114457;28;20657;-61